Time;durP1;ratioP1;P1;durP2;ratioP2;P2;SDS_P1;SDS_P2;PMS_P1;PMS_P2;Temp;Humidity;BMP_temperature;BMP_pressure;BME280_temperature;BME280_humidity;BME280_pressure;Samples;Min_cycle;Max_cycle;Signal;HPM_P1;HPM_P2
2023/01/14 00:00:25;;;;;;;29.08;7.05;;;6.60;88.80;;;;;;4992771;28;20093;-76
2023/01/14 00:02:51;;;;;;;40.65;8.52;;;6.60;88.90;;;;;;4992685;28;20030;-79
2023/01/14 00:05:17;;;;;;;32.08;8.32;;;6.60;88.90;;;;;;4992876;28;20062;-78
2023/01/14 00:07:43;;;;;;;36.63;6.65;;;6.60;89.20;;;;;;4997134;28;20270;-82
2023/01/14 00:10:09;;;;;;;34.08;7.25;;;6.60;89.30;;;;;;4998202;28;20060;-78
2023/01/14 00:12:35;;;;;;;33.22;7.15;;;6.60;89.30;;;;;;4987829;28;20376;-80
2023/01/14 00:15:01;;;;;;;36.72;7.72;;;6.60;89.30;;;;;;4990640;28;20058;-81
2023/01/14 00:17:26;;;;;;;37.67;8.30;;;6.60;89.50;;;;;;4977700;28;20170;-78
2023/01/14 00:19:52;;;;;;;31.20;7.25;;;6.60;89.40;;;;;;4994987;28;20026;-83
2023/01/14 00:22:18;;;;;;;31.88;7.63;;;6.60;89.50;;;;;;4982646;28;20092;-82
2023/01/14 00:24:43;;;;;;;35.17;7.20;;;6.60;89.60;;;;;;4987904;28;20490;-79
2023/01/14 00:27:11;;;;;;;36.92;7.57;;;6.60;89.50;;;;;;4987060;28;20039;-79
2023/01/14 00:29:36;;;;;;;33.97;7.97;;;6.60;89.50;;;;;;4989861;28;20037;-82
2023/01/14 00:32:05;;;;;;;33.53;5.95;;;6.60;89.60;;;;;;4983754;28;20054;-81
2023/01/14 00:34:32;;;;;;;38.67;10.30;;;6.60;89.60;;;;;;4994378;28;20041;-79
2023/01/14 00:36:58;;;;;;;47.38;13.38;;;6.60;89.70;;;;;;4993196;28;20034;-81
2023/01/14 00:39:25;;;;;;;35.55;9.35;;;6.60;89.80;;;;;;4988093;28;20045;-81
2023/01/14 00:41:51;;;;;;;31.90;6.55;;;6.60;89.80;;;;;;4984066;28;20043;-79
2023/01/14 00:44:19;;;;;;;32.15;7.57;;;6.60;89.90;;;;;;4994575;28;20022;-78
2023/01/14 00:46:45;;;;;;;40.03;7.45;;;6.60;90.00;;;;;;4989456;28;20050;-81
2023/01/14 00:49:22;;;;;;;33.17;6.85;;;6.60;90.10;;;;;;4992457;28;20034;-78
2023/01/14 00:51:48;;;;;;;31.27;7.53;;;6.70;90.00;;;;;;4990224;28;20049;-77
2023/01/14 00:54:14;;;;;;;36.92;8.15;;;6.60;90.00;;;;;;4985955;28;20022;-77
2023/01/14 00:56:40;;;;;;;41.83;7.47;;;6.70;90.00;;;;;;4985001;28;20037;-80
2023/01/14 00:59:06;;;;;;;31.05;6.75;;;6.70;90.00;;;;;;4991107;28;20038;-78
2023/01/14 01:01:32;;;;;;;37.63;6.85;;;6.70;90.10;;;;;;4983367;28;20117;-82
2023/01/14 01:03:58;;;;;;;28.15;7.07;;;6.70;90.00;;;;;;4988919;28;20145;-82
2023/01/14 01:06:26;;;;;;;29.13;6.22;;;6.70;90.00;;;;;;4982253;28;20046;-79
2023/01/14 01:08:58;;;;;;;30.75;6.03;;;6.70;90.10;;;;;;4986582;28;20034;-82
2023/01/14 01:11:24;;;;;;;31.17;6.00;;;6.80;89.90;;;;;;4981586;28;20050;-79
2023/01/14 01:13:49;;;;;;;29.77;5.93;;;6.70;89.90;;;;;;4986555;28;20071;-81
2023/01/14 01:16:23;;;;;;;25.17;5.90;;;6.70;89.90;;;;;;4983856;28;20066;-81
2023/01/14 01:18:50;;;;;;;35.70;7.03;;;6.80;89.90;;;;;;4986062;28;20026;-81
2023/01/14 01:21:16;;;;;;;26.90;6.28;;;6.80;89.90;;;;;;4988468;28;20053;-81
2023/01/14 01:23:43;;;;;;;31.30;6.65;;;6.80;89.80;;;;;;4984081;28;20022;-79
2023/01/14 01:26:15;;;;;;;32.35;6.55;;;6.80;89.80;;;;;;4992907;28;20548;-81
2023/01/14 01:28:42;;;;;;;31.88;7.25;;;6.80;89.70;;;;;;4981608;28;20103;-80
2023/01/14 01:31:12;;;;;;;25.88;5.63;;;6.80;89.80;;;;;;4993477;28;20049;-78
2023/01/14 01:33:38;;;;;;;34.05;6.97;;;6.80;89.70;;;;;;4970964;28;20101;-81
2023/01/14 01:36:11;;;;;;;26.33;6.90;;;6.80;89.70;;;;;;4992084;28;20537;-82
2023/01/14 01:38:37;;;;;;;26.02;6.18;;;6.80;89.70;;;;;;4986062;28;20015;-82
2023/01/14 01:41:03;;;;;;;28.20;5.85;;;6.80;89.60;;;;;;4991560;28;20041;-80
2023/01/14 01:43:31;;;;;;;32.00;6.25;;;6.80;89.60;;;;;;4989613;28;20034;-81
2023/01/14 01:45:57;;;;;;;29.35;6.10;;;6.80;89.60;;;;;;4990718;28;20045;-79
2023/01/14 01:48:33;;;;;;;23.27;4.88;;;6.80;89.60;;;;;;4992986;28;20018;-80
2023/01/14 01:51:13;;;;;;;25.13;6.18;;;6.90;89.50;;;;;;4992100;28;20116;-80
2023/01/14 01:53:42;;;;;;;31.90;6.88;;;6.80;89.40;;;;;;4985133;28;20026;-80
2023/01/14 01:56:12;;;;;;;26.85;6.03;;;6.80;89.30;;;;;;4977606;28;20034;-80
2023/01/14 01:58:39;;;;;;;30.27;6.95;;;6.80;89.30;;;;;;4992927;28;20034;-80
2023/01/14 02:01:05;;;;;;;32.72;7.82;;;6.80;89.40;;;;;;4985050;28;20046;-79
2023/01/14 02:03:41;;;;;;;33.13;6.47;;;6.80;89.40;;;;;;4989025;28;20029;-81
2023/01/14 02:06:07;;;;;;;27.63;6.07;;;6.80;89.30;;;;;;4983426;28;20120;-81
2023/01/14 02:08:35;;;;;;;24.25;5.82;;;6.90;89.30;;;;;;4990946;28;20108;-79
2023/01/14 02:11:26;;;;;;;29.13;5.93;;;6.80;89.30;;;;;;4984223;28;20137;-79
2023/01/14 02:14:29;;;;;;;33.30;6.60;;;6.80;89.30;;;;;;4980027;28;20052;-81
2023/01/14 02:17:33;;;;;;;25.33;6.30;;;6.80;89.20;;;;;;4978299;28;20054;-81
2023/01/14 02:20:26;;;;;;;27.45;6.03;;;6.80;89.20;;;;;;4986386;28;20029;-81
2023/01/14 02:23:01;;;;;;;25.90;5.78;;;6.80;89.20;;;;;;4979636;28;20085;-81
2023/01/14 02:25:29;;;;;;;;;;;6.90;89.20;;;;;;4987185;28;20042;-82
2023/01/14 02:28:10;;;;;;;32.78;6.47;;;6.90;89.20;;;;;;4983120;28;19964;-78
2023/01/14 02:30:49;;;;;;;25.75;5.55;;;6.90;89.10;;;;;;4980464;28;20034;-78
2023/01/14 02:33:40;;;;;;;31.83;6.15;;;6.90;89.10;;;;;;4972783;28;20033;-78
2023/01/14 02:36:21;;;;;;;30.13;6.53;;;7.00;89.20;;;;;;4994084;28;20057;-81
2023/01/14 02:39:22;;;;;;;30.02;6.55;;;6.90;89.00;;;;;;4984763;28;20022;-79
2023/01/14 02:45:11;;;;;;;27.13;5.82;;;7.00;89.00;;;;;;4986119;28;20069;-81
2023/01/14 02:47:39;;;;;;;28.55;5.82;;;7.00;89.00;;;;;;4994956;28;20156;-82
2023/01/14 02:50:06;;;;;;;30.15;5.68;;;7.00;88.90;;;;;;4973643;28;20491;-79
2023/01/14 02:52:31;;;;;;;28.00;6.05;;;7.00;88.80;;;;;;4993816;28;20088;-80
2023/01/14 02:55:00;;;;;;;31.25;5.80;;;7.00;88.80;;;;;;4996595;28;20050;-81
2023/01/14 02:57:51;;;;;;;26.52;5.60;;;7.10;88.80;;;;;;4992816;28;20046;-76
2023/01/14 03:00:35;;;;;;;31.25;5.28;;;7.10;88.70;;;;;;5006035;28;20045;-79
2023/01/14 03:03:25;;;;;;;31.50;5.85;;;7.10;88.50;;;;;;4996919;28;20444;-80
2023/01/14 03:06:07;;;;;;;26.55;7.32;;;7.10;88.50;;;;;;5000100;28;20061;-79
2023/01/14 03:08:42;;;;;;;25.02;5.43;;;7.10;88.40;;;;;;5009122;28;20022;-78
2023/01/14 03:11:09;;;;;;;22.08;5.15;;;7.10;88.40;;;;;;5008613;28;20037;-78
2023/01/14 03:13:55;;;;;;;24.67;4.88;;;7.10;88.50;;;;;;5007861;28;20014;-81
2023/01/14 03:16:30;;;;;;;34.35;6.35;;;7.10;88.40;;;;;;5002173;28;20053;-81
2023/01/14 03:19:07;;;;;;;28.10;5.18;;;7.10;88.40;;;;;;5000570;28;20104;-81
2023/01/14 03:21:40;;;;;;;27.58;6.38;;;7.10;88.40;;;;;;5006167;28;20045;-81
2023/01/14 03:24:18;;;;;;;24.33;5.53;;;7.10;88.30;;;;;;4997735;28;20529;-82
2023/01/14 03:26:47;;;;;;;21.30;4.85;;;7.00;88.40;;;;;;5006977;28;20071;-79
2023/01/14 03:29:22;;;;;;;25.45;6.25;;;7.00;88.50;;;;;;5005041;28;20018;-81
2023/01/14 03:31:58;;;;;;;;;;;7.00;88.40;;;;;;5000243;28;20117;-82
2023/01/14 03:34:32;;;;;;;26.77;5.18;;;7.00;88.40;;;;;;5000103;28;19996;-82
2023/01/14 03:37:02;;;;;;;27.25;5.38;;;7.10;88.30;;;;;;5005612;28;20053;-76
2023/01/14 03:39:29;;;;;;;25.48;5.63;;;7.10;88.20;;;;;;5007360;28;20529;-81
2023/01/14 03:42:18;;;;;;;24.67;5.20;;;7.10;88.30;;;;;;5006049;28;20113;-80
2023/01/14 03:44:52;;;;;;;29.15;5.38;;;7.10;88.10;;;;;;5002038;28;20030;-79
2023/01/14 03:47:19;;;;;;;26.83;5.70;;;7.10;88.20;;;;;;5006827;28;20037;-80
2023/01/14 03:49:45;;;;;;;28.98;5.13;;;7.10;88.20;;;;;;5001874;28;20265;-80
2023/01/14 03:52:20;;;;;;;23.58;5.32;;;7.00;88.30;;;;;;5002989;28;20064;-78
2023/01/14 03:54:57;;;;;;;27.70;5.55;;;7.10;88.30;;;;;;5004280;28;20026;-82
2023/01/14 03:57:40;;;;;;;29.20;5.50;;;7.10;88.10;;;;;;4997145;28;20045;-81
2023/01/14 04:00:29;;;;;;;25.15;5.45;;;7.10;88.10;;;;;;5001786;28;20033;-77
2023/01/14 04:02:58;;;;;;;26.05;5.60;;;7.10;88.00;;;;;;5003764;28;20037;-78
2023/01/14 04:05:24;;;;;;;23.17;5.35;;;7.10;88.00;;;;;;5010932;28;20029;-79
2023/01/14 04:07:52;;;;;;;25.75;5.57;;;7.10;87.90;;;;;;5006022;28;20302;-82
2023/01/14 04:10:18;;;;;;;22.15;5.13;;;7.10;88.00;;;;;;5005253;28;20029;-81
2023/01/14 04:15:28;;;;;;;21.58;5.53;;;7.10;88.10;;;;;;5002024;28;20228;-80
2023/01/14 04:17:54;;;;;;;17.90;4.20;;;7.10;88.10;;;;;;5002038;28;20120;-81
2023/01/14 04:20:20;;;;;;;22.67;5.78;;;7.10;87.90;;;;;;5006575;28;20477;-79
2023/01/14 04:22:46;;;;;;;21.23;5.47;;;7.10;87.90;;;;;;5006142;28;20053;-78
2023/01/14 04:25:12;;;;;;;22.92;5.47;;;7.10;88.00;;;;;;5002647;28;20026;-82
2023/01/14 04:27:37;;;;;;;23.55;5.35;;;7.20;88.00;;;;;;5002760;28;20438;-81
2023/01/14 04:30:04;;;;;;;24.75;5.30;;;7.10;88.10;;;;;;5009607;28;20030;-77
2023/01/14 04:32:30;;;;;;;21.52;5.50;;;7.10;88.30;;;;;;5008179;28;20124;-80
2023/01/14 04:34:56;;;;;;;22.85;6.05;;;7.10;88.30;;;;;;5005810;28;20050;-78
2023/01/14 04:37:22;;;;;;;23.60;5.53;;;7.20;88.40;;;;;;5005307;28;20042;-80
2023/01/14 04:39:47;;;;;;;25.85;4.80;;;7.20;88.30;;;;;;5007821;28;20520;-79
2023/01/14 04:42:28;;;;;;;21.73;5.13;;;7.20;88.50;;;;;;5007279;28;20073;-78
2023/01/14 04:45:02;;;;;;;17.77;5.00;;;7.20;88.50;;;;;;5005688;28;20045;-78
2023/01/14 04:47:29;;;;;;;21.88;5.28;;;7.20;88.60;;;;;;5008029;28;20049;-80
2023/01/14 04:49:55;;;;;;;23.52;4.97;;;7.30;88.60;;;;;;5004805;28;20018;-77
2023/01/14 04:52:23;;;;;;;23.67;4.90;;;7.30;88.70;;;;;;5012486;28;20119;-81
2023/01/14 04:54:50;;;;;;;27.08;6.03;;;7.30;88.90;;;;;;5012750;28;20029;-80
2023/01/14 04:57:16;;;;;;;23.20;5.53;;;7.30;89.10;;;;;;5008509;28;20094;-81
2023/01/14 04:59:41;;;;;;;26.55;5.57;;;7.30;89.30;;;;;;5007203;28;20025;-81
2023/01/14 05:02:07;;;;;;;30.27;5.45;;;7.30;89.60;;;;;;5000755;28;20042;-79
2023/01/14 05:04:32;;;;;;;28.67;5.68;;;7.30;89.70;;;;;;5006903;28;20038;-80
2023/01/14 05:07:01;;;;;;;25.10;5.90;;;7.40;89.90;;;;;;5006107;28;20493;-76
2023/01/14 05:09:26;;;;;;;23.55;4.63;;;7.40;90.20;;;;;;5017738;28;20025;-79
2023/01/14 05:11:52;;;;;;;17.15;5.22;;;7.40;90.50;;;;;;5014787;28;20033;-80
2023/01/14 05:14:18;;;;;;;17.67;4.43;;;7.40;90.60;;;;;;5008864;28;20441;-79
2023/01/14 05:16:44;;;;;;;18.20;4.88;;;7.40;90.80;;;;;;5006160;28;20724;-79
2023/01/14 05:19:09;;;;;;;20.25;5.00;;;7.40;90.90;;;;;;5012666;28;20032;-79
2023/01/14 05:21:35;;;;;;;18.02;4.50;;;7.40;91.10;;;;;;5014094;28;20845;-80
2023/01/14 05:24:01;;;;;;;26.58;5.30;;;7.40;91.20;;;;;;5010612;28;20034;-79
2023/01/14 05:26:26;;;;;;;17.40;4.63;;;7.40;91.40;;;;;;5010738;28;20038;-78
2023/01/14 05:28:52;;;;;;;19.88;4.85;;;7.40;91.50;;;;;;5003740;28;20033;-79
2023/01/14 05:31:18;;;;;;;21.63;5.18;;;7.40;91.70;;;;;;5007400;28;20160;-78
2023/01/14 05:33:43;;;;;;;23.63;5.25;;;7.50;91.80;;;;;;4995697;28;20109;-80
2023/01/14 05:36:09;;;;;;;17.88;5.18;;;7.50;92.00;;;;;;5005374;28;20474;-81
2023/01/14 05:38:35;;;;;;;19.98;6.25;;;7.50;92.20;;;;;;4998670;28;20026;-77
2023/01/14 05:41:00;;;;;;;22.25;5.88;;;7.50;92.30;;;;;;5006417;28;20331;-80
2023/01/14 05:46:15;;;;;;;21.38;6.40;;;7.50;92.50;;;;;;5000177;28;20104;-79
2023/01/14 05:48:41;;;;;;;18.92;6.18;;;7.60;92.60;;;;;;5007678;28;20030;-80
2023/01/14 05:51:10;;;;;;;17.63;6.55;;;7.60;92.70;;;;;;5005480;28;20026;-80
2023/01/14 05:53:36;;;;;;;23.15;8.18;;;7.60;92.80;;;;;;5008247;28;20077;-81
2023/01/14 05:56:01;;;;;;;20.40;8.90;;;7.60;92.90;;;;;;5011511;28;20482;-81
2023/01/14 05:58:27;;;;;;;22.40;8.60;;;7.60;92.90;;;;;;5008652;28;20054;-81
2023/01/14 06:06:30;;;;;;;23.23;11.05;;;7.70;93.10;;;;;;5007312;28;20048;-80
2023/01/14 06:09:00;;;;;;;;;;;7.80;93.20;;;;;;5007177;28;20852;-81
2023/01/14 06:11:28;;;;;;;22.58;10.77;;;7.90;93.10;;;;;;5014777;28;20016;-81
2023/01/14 06:13:57;;;;;;;25.67;10.57;;;7.90;93.10;;;;;;5019144;28;20116;-79
2023/01/14 06:16:24;;;;;;;27.20;11.80;;;8.00;93.20;;;;;;5004556;28;20061;-81
2023/01/14 06:18:49;;;;;;;27.95;11.82;;;7.90;93.20;;;;;;5005284;28;20014;-80
2023/01/14 06:21:21;;;;;;;25.15;10.13;;;8.00;93.20;;;;;;5010088;28;20479;-76
2023/01/14 06:23:48;;;;;;;27.92;11.45;;;8.10;93.10;;;;;;5004314;28;20100;-78
2023/01/14 06:26:16;;;;;;;25.65;10.82;;;8.10;93.10;;;;;;5016295;28;20112;-77
2023/01/14 06:28:42;;;;;;;21.45;9.85;;;8.10;93.10;;;;;;5008481;28;20065;-78
2023/01/14 06:31:17;;;;;;;20.75;9.82;;;8.20;93.00;;;;;;5008958;28;20073;-79
2023/01/14 06:33:44;;;;;;;24.52;9.90;;;8.20;93.00;;;;;;5006581;28;20068;-79
2023/01/14 06:36:10;;;;;;;21.85;10.00;;;8.20;92.90;;;;;;5001388;28;20048;-79
2023/01/14 06:38:37;;;;;;;25.98;9.82;;;8.20;92.90;;;;;;5005007;28;20056;-78
2023/01/14 06:41:04;;;;;;;23.05;10.30;;;8.20;92.80;;;;;;5004318;28;20046;-81
2023/01/14 06:43:31;;;;;;;25.95;8.85;;;8.30;92.80;;;;;;5001484;28;20049;-80
2023/01/14 06:45:57;;;;;;;23.05;9.45;;;8.30;92.70;;;;;;4997732;28;20092;-80
2023/01/14 06:48:24;;;;;;;22.33;8.95;;;8.40;92.60;;;;;;5004638;28;20034;-81
2023/01/14 06:50:50;;;;;;;25.45;9.70;;;8.30;92.60;;;;;;5004678;28;20092;-80
2023/01/14 06:53:16;;;;;;;20.67;8.32;;;8.40;92.60;;;;;;5004941;28;20504;-80
2023/01/14 06:55:42;;;;;;;19.30;8.25;;;8.40;92.60;;;;;;5010780;28;20030;-81
2023/01/14 06:58:08;;;;;;;25.45;9.13;;;8.40;92.50;;;;;;5006280;28;20031;-80
2023/01/14 07:00:34;;;;;;;18.45;8.25;;;8.40;92.50;;;;;;5005700;28;20560;-80
2023/01/14 07:03:00;;;;;;;22.83;7.75;;;8.50;92.50;;;;;;5012890;28;20021;-81
2023/01/14 07:05:26;;;;;;;18.30;7.60;;;8.50;92.40;;;;;;5019018;28;20393;-78
2023/01/14 07:07:52;;;;;;;21.38;7.93;;;8.60;92.30;;;;;;5010275;28;20376;-77
2023/01/14 07:10:18;;;;;;;18.55;6.85;;;8.60;92.30;;;;;;4987965;28;20068;-80
2023/01/14 07:12:49;;;;;;;18.02;6.07;;;8.60;92.30;;;;;;4999890;28;20026;-80
2023/01/14 07:15:19;;;;;;;22.02;8.15;;;8.60;92.30;;;;;;4999692;28;20103;-79
2023/01/14 07:17:45;;;;;;;23.17;7.00;;;8.70;92.30;;;;;;5007236;28;20135;-80
2023/01/14 07:20:11;;;;;;;23.50;6.40;;;8.70;92.40;;;;;;5005571;28;20301;-80
2023/01/14 07:22:37;;;;;;;14.30;6.03;;;8.70;92.30;;;;;;5005065;28;20803;-80
2023/01/14 07:25:04;;;;;;;13.25;5.55;;;8.80;92.30;;;;;;5004798;28;20018;-81
2023/01/14 07:27:30;;;;;;;18.65;5.78;;;8.80;92.30;;;;;;5006162;28;20045;-81
2023/01/14 07:29:57;;;;;;;14.82;5.40;;;8.80;92.30;;;;;;5001013;28;20017;-81
2023/01/14 07:32:23;;;;;;;13.95;5.78;;;8.80;92.30;;;;;;4977639;28;20049;-82
2023/01/14 07:34:49;;;;;;;17.15;4.85;;;8.90;92.40;;;;;;4975825;28;20118;-79
2023/01/14 07:37:15;;;;;;;16.60;4.90;;;8.80;92.40;;;;;;4977368;28;20061;-81
2023/01/14 07:39:40;;;;;;;11.70;5.05;;;8.90;92.40;;;;;;4987077;28;20027;-79
2023/01/14 07:42:06;;;;;;;17.05;5.97;;;8.90;92.40;;;;;;4976909;28;20049;-80
2023/01/14 07:44:31;;;;;;;21.25;6.25;;;8.90;92.40;;;;;;4982473;28;20105;-81
2023/01/14 07:46:57;;;;;;;13.55;4.60;;;8.90;92.50;;;;;;4973252;28;20040;-80
2023/01/14 07:49:24;;;;;;;14.50;5.30;;;8.90;92.50;;;;;;4972799;28;20117;-78
2023/01/14 07:51:50;;;;;;;15.48;5.10;;;8.90;92.50;;;;;;4984162;28;20030;-77
2023/01/14 07:54:17;;;;;;;16.10;5.07;;;8.90;92.60;;;;;;4982317;28;20023;-78
2023/01/14 07:56:43;;;;;;;17.02;5.43;;;8.90;92.50;;;;;;4978574;28;20105;-78
2023/01/14 07:59:09;;;;;;;15.85;4.55;;;9.00;92.60;;;;;;4979943;28;20022;-76
2023/01/14 08:01:35;;;;;;;17.95;5.75;;;9.00;92.50;;;;;;4983131;28;20348;-77
2023/01/14 08:04:01;;;;;;;19.10;5.25;;;9.00;92.50;;;;;;4988797;28;20538;-77
2023/01/14 08:06:27;;;;;;;15.48;5.10;;;9.00;92.60;;;;;;4989540;28;20132;-77
2023/01/14 08:08:53;;;;;;;17.90;5.15;;;9.00;92.50;;;;;;4991592;28;20019;-78
2023/01/14 08:11:19;;;;;;;17.15;4.63;;;9.00;92.60;;;;;;4993810;28;20061;-77
2023/01/14 08:13:44;;;;;;;21.52;5.28;;;9.00;92.70;;;;;;4994679;28;20025;-79
2023/01/14 08:16:10;;;;;;;17.42;4.75;;;9.00;92.70;;;;;;4979044;28;20129;-77
2023/01/14 08:18:36;;;;;;;14.00;4.97;;;9.10;92.60;;;;;;4989667;28;20022;-77
2023/01/14 08:21:07;;;;;;;16.33;4.32;;;9.00;92.60;;;;;;4987989;28;20765;-78
2023/01/14 08:23:33;;;;;;;16.27;4.43;;;9.10;92.60;;;;;;4993939;28;20160;-78
2023/01/14 08:26:01;;;;;;;15.43;4.90;;;9.10;92.60;;;;;;4988212;28;20034;-77
2023/01/14 08:28:27;;;;;;;22.00;4.93;;;9.10;92.50;;;;;;4991942;28;20549;-78
2023/01/14 08:31:05;;;;;;;14.55;3.38;;;9.10;92.50;;;;;;4985221;28;20039;-77
2023/01/14 08:33:31;;;;;;;15.90;4.95;;;9.20;92.50;;;;;;4978027;28;20015;-77
2023/01/14 08:36:01;;;;;;;25.67;4.95;;;9.20;92.50;;;;;;4983908;28;20042;-75
2023/01/14 08:38:27;;;;;;;22.50;4.50;;;9.20;92.60;;;;;;4984988;28;20593;-78
2023/01/14 08:40:54;;;;;;;18.70;4.65;;;9.20;92.60;;;;;;4984017;28;20053;-77
2023/01/14 08:43:20;;;;;;;15.77;4.35;;;9.20;92.60;;;;;;4980448;28;20037;-76
2023/01/14 08:45:46;;;;;;;14.73;4.40;;;9.30;92.70;;;;;;4981123;28;20451;-77
2023/01/14 08:48:12;;;;;;;12.70;4.20;;;9.30;92.70;;;;;;4987213;28;20030;-77
2023/01/14 08:50:37;;;;;;;12.52;4.57;;;9.30;92.70;;;;;;4988072;28;20042;-77
2023/01/14 08:53:05;;;;;;;15.20;4.13;;;9.30;92.70;;;;;;4982412;28;20034;-76
2023/01/14 08:55:30;;;;;;;13.40;3.80;;;9.40;92.70;;;;;;4979859;28;20092;-77
2023/01/14 08:57:57;;;;;;;13.55;3.95;;;9.40;92.60;;;;;;4986657;28;20030;-78
2023/01/14 09:00:23;;;;;;;18.10;4.63;;;9.40;92.70;;;;;;4984989;28;20045;-77
2023/01/14 09:02:49;;;;;;;15.50;4.25;;;9.40;92.70;;;;;;4982303;28;20065;-77
2023/01/14 09:05:15;;;;;;;16.52;4.72;;;9.40;92.70;;;;;;4980022;28;20026;-78
2023/01/14 09:18:41;;;;;;;;;;;9.60;92.80;;;;;;4980838;28;20037;-78
2023/01/14 09:21:07;;;;;;;14.45;5.63;;;9.60;92.70;;;;;;4980016;28;19932;-78
2023/01/14 09:23:33;;;;;;;11.93;5.10;;;9.60;92.70;;;;;;4986202;28;20033;-79
2023/01/14 09:25:58;;;;;;;19.70;5.57;;;9.60;92.80;;;;;;4980725;28;20034;-78
2023/01/14 09:28:24;;;;;;;17.63;5.20;;;9.60;92.70;;;;;;4978457;28;20659;-77
2023/01/14 09:30:50;;;;;;;12.43;4.13;;;9.70;92.70;;;;;;4978449;28;20495;-77
2023/01/14 09:33:15;;;;;;;12.88;4.25;;;9.60;92.70;;;;;;4985801;28;20025;-77
2023/01/14 09:35:41;;;;;;;17.88;4.15;;;9.70;92.70;;;;;;4984075;28;20506;-76
2023/01/14 09:38:07;;;;;;;17.10;4.55;;;9.70;92.70;;;;;;4981986;28;20403;-77
2023/01/14 09:40:37;;;;;;;13.57;4.35;;;9.80;92.80;;;;;;4983455;28;20616;-77
2023/01/14 09:43:05;;;;;;;14.02;3.63;;;9.80;92.70;;;;;;4985708;28;20097;-75
2023/01/14 09:45:32;;;;;;;14.18;4.38;;;9.80;92.70;;;;;;4985677;28;20026;-77
2023/01/14 09:48:14;;;;;;;12.25;3.80;;;9.90;92.60;;;;;;4977440;28;20022;-76
2023/01/14 09:51:04;;;;;;;12.70;3.88;;;9.80;92.60;;;;;;4984284;28;20100;-77
2023/01/14 09:54:06;;;;;;;12.45;3.78;;;9.90;92.60;;;;;;4983900;28;20026;-76
2023/01/14 09:56:38;;;;;;;10.35;3.80;;;9.90;92.40;;;;;;4983295;28;20042;-77
2023/01/14 09:59:19;;;;;;;13.10;3.40;;;10.00;92.60;;;;;;4987436;28;20080;-78
2023/01/14 10:02:13;;;;;;;11.48;3.30;;;10.00;92.60;;;;;;4981970;28;20097;-77
2023/01/14 10:04:51;;;;;;;9.17;3.03;;;10.00;92.60;;;;;;4977190;28;20162;-78
2023/01/14 10:07:18;;;;;;;14.70;3.80;;;10.00;92.60;;;;;;4980258;28;20130;-77
2023/01/14 10:10:00;;;;;;;8.48;2.72;;;10.10;92.50;;;;;;4983028;28;20058;-78
2023/01/14 10:12:31;;;;;;;12.35;3.25;;;10.10;92.20;;;;;;4983951;28;20053;-76
2023/01/14 10:15:06;;;;;;;8.98;3.00;;;10.10;92.00;;;;;;4987490;28;20050;-75
2023/01/14 10:17:36;;;;;;;10.80;2.97;;;10.10;92.00;;;;;;4982652;28;20112;-77
2023/01/14 10:20:12;;;;;;;8.75;2.70;;;10.10;92.00;;;;;;4987125;28;20684;-78
2023/01/14 10:22:45;;;;;;;8.00;2.65;;;10.10;92.10;;;;;;4977746;28;20045;-77
2023/01/14 10:25:19;;;;;;;7.30;2.97;;;10.20;92.00;;;;;;4988935;28;20113;-77
2023/01/14 10:27:52;;;;;;;6.00;3.00;;;10.20;91.90;;;;;;4983189;28;20058;-76
2023/01/14 10:30:23;;;;;;;10.57;2.72;;;10.20;91.90;;;;;;4995761;28;20030;-77
2023/01/14 10:32:52;;;;;;;8.70;2.70;;;10.20;92.00;;;;;;4990417;28;20105;-77
2023/01/14 10:35:27;;;;;;;10.23;2.70;;;10.20;92.10;;;;;;4988206;28;20784;-77
2023/01/14 10:37:53;;;;;;;11.23;2.83;;;10.20;92.10;;;;;;4977854;28;20096;-77
2023/01/14 10:40:24;;;;;;;10.10;2.55;;;10.20;92.10;;;;;;4979790;28;20109;-77
2023/01/14 10:42:52;;;;;;;6.88;2.67;;;10.30;92.10;;;;;;4997854;28;20038;-77
2023/01/14 10:45:18;;;;;;;9.35;2.42;;;10.20;92.10;;;;;;4976248;28;20089;-77
2023/01/14 10:47:45;;;;;;;6.80;2.67;;;10.20;92.20;;;;;;4987921;28;20132;-77
2023/01/14 10:50:19;;;;;;;8.10;2.92;;;10.20;92.10;;;;;;4992039;28;20019;-77
2023/01/14 10:52:45;;;;;;;8.82;2.50;;;10.20;92.20;;;;;;5006023;28;20502;-77
2023/01/14 10:55:10;;;;;;;8.70;2.67;;;10.30;92.30;;;;;;4998233;28;20061;-76
2023/01/14 10:57:43;;;;;;;7.10;2.60;;;10.40;92.30;;;;;;4991663;28;20058;-77
2023/01/14 11:00:28;;;;;;;7.00;2.30;;;10.30;92.30;;;;;;4991713;28;20038;-77
2023/01/14 11:02:56;;;;;;;6.85;2.25;;;10.40;92.30;;;;;;5000780;28;20565;-76
2023/01/14 11:05:28;;;;;;;6.75;2.40;;;10.40;92.30;;;;;;5002087;28;20676;-77
2023/01/14 11:07:57;;;;;;;8.10;3.28;;;10.40;92.40;;;;;;5004008;28;20018;-77
2023/01/14 11:10:28;;;;;;;9.43;2.72;;;10.40;92.30;;;;;;5001043;28;20121;-77
2023/01/14 11:13:13;;;;;;;6.82;2.45;;;10.50;92.40;;;;;;5000894;28;20076;-77
2023/01/14 11:15:41;;;;;;;7.00;2.40;;;10.50;92.40;;;;;;5011670;28;20069;-77
2023/01/14 11:18:18;;;;;;;5.22;2.03;;;10.50;92.30;;;;;;5010922;28;20036;-76
2023/01/14 11:20:54;;;;;;;4.10;1.88;;;10.60;92.10;;;;;;5011478;28;20177;-76
2023/01/14 11:23:44;;;;;;;5.80;2.35;;;10.60;92.20;;;;;;5009431;28;20437;-77
2023/01/14 11:26:22;;;;;;;5.35;2.17;;;10.60;92.10;;;;;;5001246;28;20073;-77
2023/01/14 11:28:49;;;;;;;7.85;2.60;;;10.70;92.20;;;;;;4999783;28;20034;-77
2023/01/14 11:31:17;;;;;;;7.78;2.63;;;10.70;92.10;;;;;;4997093;28;20034;-77
2023/01/14 11:33:51;;;;;;;7.22;2.83;;;10.70;92.10;;;;;;4999920;28;20018;-77
2023/01/14 11:36:22;;;;;;;5.35;2.40;;;10.80;92.00;;;;;;5000149;28;20115;-76
2023/01/14 11:38:48;;;;;;;8.90;2.65;;;10.80;92.00;;;;;;4995452;28;20050;-77
2023/01/14 11:41:37;;;;;;;5.47;2.10;;;10.80;92.00;;;;;;5002338;28;20579;-76
2023/01/14 11:44:14;;;;;;;6.18;2.47;;;10.90;91.90;;;;;;5001856;28;20032;-76
2023/01/14 11:46:43;;;;;;;5.72;2.17;;;10.90;91.90;;;;;;4994224;28;20077;-77
2023/01/14 11:49:19;;;;;;;8.45;2.45;;;11.00;91.80;;;;;;4998278;28;20022;-75
2023/01/14 11:52:15;;;;;;;6.03;2.10;;;11.00;91.80;;;;;;4996006;28;20037;-76
2023/01/14 11:54:43;;;;;;;4.55;2.10;;;11.10;91.70;;;;;;5000590;28;20019;-76
2023/01/14 11:57:16;;;;;;;7.03;2.13;;;11.10;91.50;;;;;;5000240;28;20072;-77
2023/01/14 11:59:43;;;;;;;6.93;1.90;;;11.10;91.40;;;;;;5003444;28;20075;-77
2023/01/14 12:02:15;;;;;;;6.45;2.13;;;11.20;91.50;;;;;;5000428;28;20534;-76
2023/01/14 12:04:45;;;;;;;4.57;2.10;;;11.20;91.60;;;;;;5002274;28;20030;-77
2023/01/14 12:07:18;;;;;;;5.40;2.20;;;11.30;91.50;;;;;;5002929;28;20045;-77
2023/01/14 12:09:45;;;;;;;5.78;2.22;;;11.30;91.60;;;;;;5000754;28;20029;-77
2023/01/14 12:12:15;;;;;;;5.07;2.17;;;11.30;91.70;;;;;;5000449;28;20046;-77
2023/01/14 12:17:50;;;;;;;;;;;11.30;92.00;;;;;;5000111;28;20036;-78
2023/01/14 12:20:23;;;;;;;5.35;2.15;;;11.30;92.20;;;;;;5001269;28;20000;-76
2023/01/14 12:22:57;;;;;;;4.90;1.95;;;11.30;92.20;;;;;;4993816;28;20048;-77
2023/01/14 12:25:31;;;;;;;7.28;2.55;;;11.30;92.30;;;;;;5003153;28;20121;-76
2023/01/14 12:28:05;;;;;;;7.15;2.58;;;11.40;92.30;;;;;;5000720;28;20014;-77
2023/01/14 12:30:36;;;;;;;5.70;2.20;;;11.40;92.30;;;;;;5003938;28;20018;-76
2023/01/14 12:33:20;;;;;;;9.77;2.55;;;11.40;92.30;;;;;;5007225;28;20409;-77
2023/01/14 12:35:57;;;;;;;5.05;2.45;;;11.50;92.40;;;;;;5006523;28;20067;-77
2023/01/14 12:47:41;;;;;;;5.30;2.40;;;11.50;92.60;;;;;;4999206;28;20093;-77
2023/01/14 12:50:09;;;;;;;8.10;2.85;;;11.50;92.70;;;;;;5003561;28;20097;-77
2023/01/14 12:52:38;;;;;;;6.28;2.83;;;11.50;92.80;;;;;;5008573;28;20513;-76
2023/01/14 12:55:06;;;;;;;6.32;2.85;;;11.50;92.90;;;;;;4995753;28;20030;-77
2023/01/14 12:57:37;;;;;;;7.20;2.53;;;11.50;92.90;;;;;;5007650;28;20121;-78
2023/01/14 13:00:09;;;;;;;7.35;2.70;;;11.50;93.00;;;;;;5006555;28;20016;-77
2023/01/14 13:02:43;;;;;;;6.47;2.40;;;11.50;93.10;;;;;;5004086;28;20038;-77
2023/01/14 13:05:14;;;;;;;5.63;2.40;;;11.50;93.20;;;;;;5004615;28;20430;-77
2023/01/14 13:07:55;;;;;;;7.63;3.22;;;11.40;93.20;;;;;;5005512;28;20024;-77
2023/01/14 13:10:36;;;;;;;5.57;2.65;;;11.50;93.30;;;;;;5000111;28;20076;-78
2023/01/14 13:13:18;;;;;;;7.75;2.78;;;11.50;93.30;;;;;;4999995;28;20029;-78
2023/01/14 13:15:44;;;;;;;5.07;2.33;;;11.50;93.30;;;;;;4997657;28;20053;-77
2023/01/14 13:18:34;;;;;;;5.65;2.40;;;11.50;93.40;;;;;;5005958;28;20019;-78
2023/01/14 13:21:02;;;;;;;7.07;2.47;;;11.50;93.50;;;;;;5001127;28;20081;-79
2023/01/14 13:23:51;;;;;;;6.07;2.90;;;11.50;93.60;;;;;;5001261;28;20030;-76
2023/01/14 13:26:40;;;;;;;6.28;2.70;;;11.50;93.60;;;;;;4997445;28;20046;-76
2023/01/14 13:29:15;;;;;;;7.30;2.30;;;11.50;93.60;;;;;;4997659;28;20030;-76
2023/01/14 13:31:42;;;;;;;6.22;2.75;;;11.60;93.60;;;;;;5001705;28;20038;-75
2023/01/14 13:34:26;;;;;;;5.47;2.33;;;11.60;93.70;;;;;;5004963;28;20105;-76
2023/01/14 13:37:04;;;;;;;6.07;2.70;;;11.60;93.70;;;;;;5001312;28;20426;-76
2023/01/14 13:39:31;;;;;;;3.88;2.10;;;11.60;93.80;;;;;;5001155;28;20446;-76
2023/01/14 13:42:00;;;;;;;3.95;2.53;;;11.60;93.80;;;;;;5002088;28;20096;-77